Historique des mesures à Cassis (13260), France
Quotidien Résumé Janvier 26, 2018 Unités:  Métrique    US   Métrique/US
« Précédent (Jour)
Suivant (Jour) »
Quotidien Hebdomadaire Mensuel Annuel Période au choix
  Maximum: Minimum: Moyenne:
Température: TemperatureC °C 11.3 °C 11.8 °C
Point de rosée: DewpointC °C 8.2 °C 8.7 °C
Humidité: Humidity % 71 % 77 %
Vitesse du vent: 0 km/h 0 km/h 11.1 km/h
Rafales: 0 km/h - -
Vent:- - ESE
Pression: PressurehPa hPa 1010.4 hPa -
Précipitations: 11.9 mm    
Historical Graphs
 
 
Mesures pour : Janvier 26, 2018
Heure Temperature Point de rosée Pression Vent Vitesse du vent Rafales Humidité Pluie (par heure) Conditions
TemperatureC °C DewpointC °C PressurehPa hPa Calm     Humidity % HourlyPrecipMM mm SoftwareType W/m2
00:12 13.3 °C 9.5 °C 1014.8 hPa Calm   14 km/h 78 % 0.0 mm open2300-1.11 W/m2
01:12 13.4 °C 9.6 °C 1014.1 hPa Calm   16.3 km/h 78 % 0.0 mm open2300-1.11 W/m2
02:12 13.3 °C 8.9 °C 1013.4 hPa SE 14.5 km/h 20.9 km/h 75 % 0.0 mm open2300-1.11 W/m2
03:12 13.4 °C 8.2 °C 1012.8 hPa SE 19.6 km/h 19.6 km/h 71 % 0.0 mm open2300-1.11 W/m2
04:12 13.4 °C 8.4 °C 1011.7 hPa ESE 6.9 km/h 8 km/h 72 % 0.0 mm open2300-1.11 W/m2
05:12 13.3 °C 8.3 °C 1011.7 hPa ESE 33.6 km/h 33.6 km/h 72 % 0.0 mm open2300-1.11 W/m2
06:12 12.8 °C 8.4 °C 1011.1 hPa ENE 17.9 km/h 19.6 km/h 75 % 0.0 mm open2300-1.11 W/m2
07:12 12.9 °C 8.6 °C 1010.7 hPa SE 15 km/h 15 km/h 75 % 0.0 mm open2300-1.11 W/m2
08:12 12.2 °C 8.9 °C 1010.7 hPa ESE 8.9 km/h 8.9 km/h 80 % 0.5 mm open2300-1.11 W/m2
09:12 12.1 °C 8.8 °C 1010.7 hPa ESE 9.3 km/h 14.5 km/h 80 % 0.5 mm open2300-1.11 W/m2
10:12 12.1 °C 9.3 °C 1011.1 hPa SE 9.3 km/h 9.3 km/h 83 % 0.0 mm open2300-1.11 W/m2
11:12 11.9 °C 9.3 °C 1011.7 hPa ESE 12.7 km/h 12.7 km/h 84 % 0.5 mm open2300-1.11 W/m2
12:12 11.8 °C 9.0 °C 1011.4 hPa ESE 14 km/h 15 km/h 83 % 0.5 mm open2300-1.11 W/m2
13:12 11.8 °C 9.0 °C 1010.7 hPa Calm   9.3 km/h 83 % 0.0 mm open2300-1.11 W/m2
14:12 11.9 °C 9.3 °C 1010.7 hPa Calm   10.3 km/h 84 % 0.0 mm open2300-1.11 W/m2
15:12 11.8 °C 9.2 °C 1010.4 hPa SE 14 km/h 14 km/h 84 % 0.5 mm open2300-1.11 W/m2
16:12 11.6 °C 8.8 °C 1010.4 hPa ESE 20.3 km/h 20.3 km/h 83 % 0.5 mm open2300-1.11 W/m2
17:12 12.1 °C 8.6 °C 1010.4 hPa NNE 2.9 km/h 12.2 km/h 79 % 0.0 mm open2300-1.11 W/m2
18:12 11.4 °C 8.8 °C 1011.1 hPa SE 5.6 km/h 7.6 km/h 84 % 2.0 mm open2300-1.11 W/m2
19:12 11.3 °C 9.0 °C 1011.4 hPa Calm   7.6 km/h 86 % 2.5 mm open2300-1.11 W/m2
20:12 11.3 °C 9.0 °C 1011.4 hPa ESE 9.3 km/h 23.8 km/h 86 % 0.5 mm open2300-1.11 W/m2
21:12 11.9 °C 9.8 °C 1011.7 hPa SE 34.8 km/h 34.8 km/h 87 % 0.0 mm open2300-1.11 W/m2
22:12 12.5 °C 10.4 °C 1012.8 hPa SE 16.9 km/h 23.8 km/h 87 % 0.0 mm open2300-1.11 W/m2
23:12 12.4 °C 10.3 °C 1013.8 hPa SE 10.3 km/h 10.3 km/h 87 % 0.0 mm open2300-1.11 W/m2
Observations météo à CASSIS
WU-History script by Weather Underground - 1 mb